Time;durP1;ratioP1;P1;durP2;ratioP2;P2;SDS_P1;SDS_P2;PMS_P1;PMS_P2;Temp;Humidity;BMP_temperature;BMP_pressure;BME280_temperature;BME280_humidity;BME280_pressure;Samples;Min_cycle;Max_cycle;Signal;HPM_P1;HPM_P2
2021/12/21 00:01:32;;;;;;;;;;;17.60;45.40;;;;;;5105248;27;43525;-73
2021/12/21 00:03:58;;;;;;;;;;;17.60;45.40;;;;;;5120620;27;42908;-79
2021/12/21 00:06:23;;;;;;;;;;;17.60;45.40;;;;;;5124365;27;43015;-76
2021/12/21 00:08:49;;;;;;;;;;;17.50;45.40;;;;;;5118038;27;42813;-73
2021/12/21 00:11:15;;;;;;;;;;;17.50;45.40;;;;;;5104640;27;43051;-78
2021/12/21 00:16:42;;;;;;;;;;;17.50;45.40;;;;;;5113968;27;43296;-77
2021/12/21 00:21:39;;;;;;;;;;;17.50;45.40;;;;;;5126170;27;43487;-73
2021/12/21 00:24:20;;;;;;;;;;;17.50;45.40;;;;;;5126233;27;42979;-79
2021/12/21 00:26:45;;;;;;;;;;;17.50;45.40;;;;;;5124810;27;45130;-73
2021/12/21 00:29:12;;;;;;;;;;;17.50;45.50;;;;;;5126185;27;42936;-72
2021/12/21 00:31:38;;;;;;;;;;;17.50;45.50;;;;;;5120934;27;42905;-75
2021/12/21 00:34:05;;;;;;;;;;;17.50;45.50;;;;;;5105891;27;42921;-80
2021/12/21 00:36:31;;;;;;;;;;;17.40;45.40;;;;;;5104978;27;43411;-72
2021/12/21 00:38:58;;;;;;;;;;;17.50;45.70;;;;;;5104947;27;42976;-76
2021/12/21 00:41:25;;;;;;;;;;;17.50;45.60;;;;;;5108404;27;42840;-76
2021/12/21 00:43:50;;;;;;;;;;;17.50;45.60;;;;;;5107536;27;42835;-73
2021/12/21 00:46:16;;;;;;;;;;;17.50;45.60;;;;;;5108697;27;43016;-72
2021/12/21 00:48:49;;;;;;;;;;;17.40;45.50;;;;;;5107254;27;43034;-77
2021/12/21 00:51:15;;;;;;;;;;;17.50;46.10;;;;;;5108261;27;42967;-80
2021/12/21 00:53:41;;;;;;;;;;;17.50;45.60;;;;;;5108473;27;42984;-79
2021/12/21 00:56:07;;;;;;;;;;;17.50;45.60;;;;;;5107455;27;43651;-78
2021/12/21 00:58:32;;;;;;;;;;;17.50;45.60;;;;;;5109182;27;42856;-79
2021/12/21 01:01:03;;;;;;;;;;;17.50;45.60;;;;;;5108987;27;43464;-79
2021/12/21 01:03:29;;;;;;;;;;;17.40;45.50;;;;;;5108976;27;42869;-78
2021/12/21 01:06:03;;;;;;;;;;;17.40;45.50;;;;;;5108679;27;42880;-79
2021/12/21 01:08:40;;;;;;;;;;;17.40;45.50;;;;;;5116743;27;43324;-79
2021/12/21 01:11:30;;;;;;;;;;;17.40;45.50;;;;;;5129324;27;42943;-79
2021/12/21 01:14:14;;;;;;;;;;;17.40;45.60;;;;;;5126199;27;43503;-79
2021/12/21 01:17:00;;;;;;;;;;;17.40;45.50;;;;;;5110259;27;43016;-74
2021/12/21 01:20:03;;;;;;;;;;;17.40;45.60;;;;;;5107764;27;43139;-74
2021/12/21 01:27:29;;;;;;;;;;;17.30;45.60;;;;;;5117672;27;43218;-73
2021/12/21 01:35:13;;;;;;;;;;;17.30;45.70;;;;;;5107840;27;42889;-73
2021/12/21 01:37:56;;;;;;;;;;;17.40;45.70;;;;;;5108206;27;42954;-73
2021/12/21 01:51:01;;;;;;;;;;;17.30;45.70;;;;;;5107719;27;43025;-78
2021/12/21 01:53:27;;;;;;;;;;;17.30;45.80;;;;;;5106973;27;44406;-79
2021/12/21 01:55:54;;;;;;;;;;;17.30;45.70;;;;;;5107008;27;43013;-76
2021/12/21 01:58:20;;;;;;;;;;;17.30;45.80;;;;;;5107450;27;42896;-73
2021/12/21 02:00:46;;;;;;;;;;;17.30;45.80;;;;;;5107180;27;42955;-77
2021/12/21 02:03:11;;;;;;;;;;;17.30;45.80;;;;;;5119483;27;43677;-72
2021/12/21 02:05:37;;;;;;;;;;;17.30;45.80;;;;;;5110893;27;43148;-72
2021/12/21 02:08:04;;;;;;;;;;;17.30;45.80;;;;;;5105263;27;43918;-78
2021/12/21 02:10:29;;;;;;;;;;;17.30;45.80;;;;;;5107572;27;42916;-73
2021/12/21 02:12:55;;;;;;;;;;;17.30;45.80;;;;;;5106807;27;43565;-77
2021/12/21 02:15:20;;;;;;;;;;;17.30;45.80;;;;;;5107832;27;42865;-73
2021/12/21 02:20:50;;;;;;;;;;;17.20;45.80;;;;;;5079050;27;43080;-73
2021/12/21 02:23:27;;;;;;;;;;;17.20;45.80;;;;;;5107035;27;42762;-72
2021/12/21 02:30:48;;;;;;;;;;;17.20;46.00;;;;;;5107243;27;42933;-74
2021/12/21 02:33:14;;;;;;;;;;;17.20;45.90;;;;;;5106868;27;42916;-78
2021/12/21 02:35:40;;;;;;;;;;;17.20;45.90;;;;;;5107387;27;42936;-73
2021/12/21 02:38:06;;;;;;;;;;;17.20;45.90;;;;;;5107965;27;43015;-74
2021/12/21 02:40:32;;;;;;;;;;;17.20;46.40;;;;;;5107035;27;42897;-72
2021/12/21 02:42:58;;;;;;;;;;;17.20;45.90;;;;;;5104590;27;43018;-72
2021/12/21 02:45:23;;;;;;;;;;;17.20;45.90;;;;;;5106936;27;43194;-73
2021/12/21 02:47:49;;;;;;;;;;;17.20;46.10;;;;;;5106963;27;43062;-73
2021/12/21 02:50:14;;;;;;;;;;;17.20;46.00;;;;;;5107859;27;42783;-73
2021/12/21 02:52:40;;;;;;;;;;;17.20;46.00;;;;;;5107227;27;42912;-72
2021/12/21 02:55:06;;;;;;;;;;;17.20;46.00;;;;;;5107459;27;43034;-72
2021/12/21 02:57:31;;;;;;;;;;;17.20;46.00;;;;;;5106718;27;42898;-76
2021/12/21 02:59:57;;;;;;;;;;;17.20;46.00;;;;;;5107050;27;42973;-76
2021/12/21 03:02:23;;;;;;;;;;;17.20;46.00;;;;;;5106832;27;42985;-73
2021/12/21 03:04:50;;;;;;;;;;;17.10;46.00;;;;;;5106418;27;43507;-73
2021/12/21 03:09:59;;;;;;;;;;;17.20;46.10;;;;;;5106421;27;43207;-72
2021/12/21 03:14:51;;;;;;;;;;;17.20;46.10;;;;;;5106113;27;42918;-79
2021/12/21 03:17:17;;;;;;;;;;;17.20;46.20;;;;;;5106068;27;43418;-79
2021/12/21 03:19:43;;;;;;;;;;;17.10;46.10;;;;;;5106404;27;42850;-75
2021/12/21 03:22:09;;;;;;;;;;;17.20;46.20;;;;;;5105886;27;43618;-74
2021/12/21 03:24:35;;;;;;;;;;;17.10;46.10;;;;;;5106362;27;42947;-79
2021/12/21 03:27:01;;;;;;;;;;;17.10;46.10;;;;;;5106112;27;43624;-79
2021/12/21 03:29:27;;;;;;;;;;;17.10;46.10;;;;;;5106872;27;42821;-79
2021/12/21 03:31:52;;;;;;;;;;;17.10;46.10;;;;;;5121730;27;43581;-74
2021/12/21 03:34:18;;;;;;;;;;;17.10;46.20;;;;;;5122527;27;42894;-75
2021/12/21 03:36:43;;;;;;;;;;;17.10;46.20;;;;;;5105984;27;43395;-75
2021/12/21 03:39:16;;;;;;;;;;;17.10;46.20;;;;;;5106149;27;42960;-79
2021/12/21 03:41:45;;;;;;;;;;;17.10;46.20;;;;;;5105726;27;43476;-77
2021/12/21 03:44:11;;;;;;;;;;;17.10;46.20;;;;;;5105819;27;42979;-79
2021/12/21 03:46:45;;;;;;;;;;;17.10;46.20;;;;;;5105872;27;42909;-79
2021/12/21 03:49:50;;;;;;;;;;;17.10;46.70;;;;;;5105839;27;43085;-79
2021/12/21 03:51:56;;;;;;;;;;;17.10;46.30;;;;;;5105713;27;42972;-77
2021/12/21 03:54:22;;;;;;;;;;;17.10;46.20;;;;;;5106254;27;43041;-78
2021/12/21 03:56:50;;;;;;;;;;;17.10;46.20;;;;;;5116168;27;42854;-75
2021/12/21 03:59:16;;;;;;;;;;;17.00;46.20;;;;;;5126923;27;42730;-76
2021/12/21 04:01:41;;;;;;;;;;;17.10;46.30;;;;;;5126297;27;42988;-79
2021/12/21 04:04:08;;;;;;;;;;;17.10;46.30;;;;;;5126105;27;42997;-73
2021/12/21 04:06:34;;;;;;;;;;;17.10;46.30;;;;;;5116629;27;42916;-73
2021/12/21 04:09:00;;;;;;;;;;;17.00;46.20;;;;;;5104802;27;43595;-75
2021/12/21 04:11:25;;;;;;;;;;;17.00;46.20;;;;;;5105719;27;43621;-72
2021/12/21 04:13:51;;;;;;;;;;;17.00;46.20;;;;;;5105330;27;42989;-79
2021/12/21 04:16:16;;;;;;;;;;;17.00;46.30;;;;;;5105583;27;43347;-77
2021/12/21 04:18:42;;;;;;;;;;;17.00;46.30;;;;;;5104866;27;43635;-78
2021/12/21 04:21:11;;;;;;;;;;;17.00;46.30;;;;;;5105159;27;44008;-78
2021/12/21 04:23:39;;;;;;;;;;;17.00;46.30;;;;;;5105474;27;43044;-73
2021/12/21 04:26:04;;;;;;;;;;;17.00;46.30;;;;;;5116402;27;43549;-73
2021/12/21 04:28:30;;;;;;;;;;;17.10;46.40;;;;;;5108448;27;43027;-79
2021/12/21 04:30:55;;;;;;;;;;;17.00;46.30;;;;;;5115771;27;43764;-77
2021/12/21 04:33:21;;;;;;;;;;;16.90;45.60;;;;;;5115310;27;43047;-78
2021/12/21 04:35:46;;;;;;;;;;;16.80;44.40;;;;;;5106696;27;43572;-77
2021/12/21 04:38:20;;;;;;;;;;;16.70;44.00;;;;;;5114331;27;43402;-73
2021/12/21 04:40:49;;;;;;;;;;;16.50;43.90;;;;;;5104403;27;43381;-78
2021/12/21 04:43:15;;;;;;;;;;;16.50;43.60;;;;;;5116302;27;42935;-73
2021/12/21 04:45:41;;;;;;;;;;;16.30;43.20;;;;;;5112268;27;43419;-79
2021/12/21 04:48:06;;;;;;;;;;;16.30;43.00;;;;;;5117831;27;44313;-74
2021/12/21 04:50:32;;;;;;;;;;;16.10;42.30;;;;;;5124544;27;44934;-74
2021/12/21 04:52:57;;;;;;;;;;;15.90;41.80;;;;;;5117632;27;43323;-74
2021/12/21 04:55:23;;;;;;;;;;;15.70;41.40;;;;;;5104857;27;43444;-79
2021/12/21 04:57:48;;;;;;;;;;;15.60;41.20;;;;;;5110699;27;43121;-75
2021/12/21 05:00:14;;;;;;;;;;;15.50;41.00;;;;;;5124849;27;43587;-80
2021/12/21 05:02:40;;;;;;;;;;;15.40;40.90;;;;;;5124446;27;42975;-75
2021/12/21 05:05:06;;;;;;;;;;;15.30;40.90;;;;;;5112553;27;43359;-73
2021/12/21 05:07:34;;;;;;;;;;;15.50;41.80;;;;;;5105395;27;42985;-78
2021/12/21 05:10:01;;;;;;;;;;;15.70;42.30;;;;;;5104474;27;43506;-71
2021/12/21 05:12:27;;;;;;;;;;;16.00;42.90;;;;;;5104581;27;43078;-77
2021/12/21 05:14:54;;;;;;;;;;;16.20;42.90;;;;;;5104123;27;43192;-72
2021/12/21 05:17:19;;;;;;;;;;;16.30;42.90;;;;;;5103515;27;42920;-72
2021/12/21 05:19:45;;;;;;;;;;;16.40;42.90;;;;;;5104263;27;43859;-76
2021/12/21 05:22:10;;;;;;;;;;;16.40;42.90;;;;;;5105428;27;42910;-77
2021/12/21 05:24:36;;;;;;;;;;;16.50;43.00;;;;;;5105444;27;42867;-78
2021/12/21 05:27:02;;;;;;;;;;;16.50;43.00;;;;;;5107439;27;42786;-73
2021/12/21 05:29:30;;;;;;;;;;;16.50;42.90;;;;;;5107796;27;43008;-76
2021/12/21 05:31:58;;;;;;;;;;;16.50;43.00;;;;;;5108526;27;43038;-77
2021/12/21 05:34:24;;;;;;;;;;;16.50;42.90;;;;;;5108389;27;43002;-78
2021/12/21 05:36:49;;;;;;;;;;;16.50;42.90;;;;;;5108757;27;42938;-77
2021/12/21 05:39:22;;;;;;;;;;;16.50;42.90;;;;;;5107857;27;43608;-77
2021/12/21 05:44:14;;;;;;;;;;;16.50;42.90;;;;;;5108082;27;43103;-74
2021/12/21 05:46:39;;;;;;;;;;;16.50;42.90;;;;;;5108761;27;42896;-78
2021/12/21 05:49:05;;;;;;;;;;;16.50;42.80;;;;;;5108179;27;42916;-78
2021/12/21 05:51:30;;;;;;;;;;;16.50;42.80;;;;;;5108114;27;42999;-76
2021/12/21 05:53:56;;;;;;;;;;;16.50;42.80;;;;;;5107483;27;43664;-78
2021/12/21 05:56:21;;;;;;;;;;;16.50;42.80;;;;;;5107867;27;43130;-78
2021/12/21 05:58:47;;;;;;;;;;;16.50;42.70;;;;;;5107158;27;43437;-77
2021/12/21 06:01:13;;;;;;;;;;;16.50;42.80;;;;;;5107733;27;43300;-79
2021/12/21 06:03:38;;;;;;;;;;;16.60;42.80;;;;;;5107627;27;43774;-75
2021/12/21 06:06:04;;;;;;;;;;;16.60;42.70;;;;;;5107129;27;43463;-78
2021/12/21 06:08:29;;;;;;;;;;;16.50;42.70;;;;;;5106814;27;42960;-78
2021/12/21 06:10:56;;;;;;;;;;;16.50;42.70;;;;;;5108318;27;43180;-78
2021/12/21 06:24:23;;;;;;;;;;;16.50;42.60;;;;;;5107939;27;42964;-76
2021/12/21 06:26:29;;;;;;;;;;;16.50;42.40;;;;;;5107192;27;42840;-72
2021/12/21 06:28:55;;;;;;;;;;;16.50;42.50;;;;;;5107414;27;43450;-72
2021/12/21 06:31:20;;;;;;;;;;;16.50;42.40;;;;;;5107739;27;42821;-72
2021/12/21 06:33:46;;;;;;;;;;;16.50;42.40;;;;;;5107368;27;43979;-73
2021/12/21 06:36:12;;;;;;;;;;;16.50;42.40;;;;;;5107742;27;42936;-72
2021/12/21 06:38:38;;;;;;;;;;;16.50;42.40;;;;;;5107387;27;42853;-72
2021/12/21 06:41:04;;;;;;;;;;;16.50;42.40;;;;;;5107846;27;42886;-72
2021/12/21 06:43:31;;;;;;;;;;;16.50;42.40;;;;;;5106813;27;42869;-72
2021/12/21 06:46:11;;;;;;;;;;;16.50;42.40;;;;;;5107553;27;42840;-72
2021/12/21 06:51:48;;;;;;;;;;;16.50;42.40;;;;;;5107659;27;42989;-77
2021/12/21 06:54:07;;;;;;;;;;;16.50;42.40;;;;;;5106593;27;42944;-78
2021/12/21 06:56:32;;;;;;;;;;;16.50;42.40;;;;;;5107197;27;42770;-73
2021/12/21 06:58:58;;;;;;;;;;;16.50;42.40;;;;;;5107183;27;43662;-72
2021/12/21 07:01:26;;;;;;;;;;;16.50;42.40;;;;;;5107313;27;42930;-73
2021/12/21 07:03:51;;;;;;;;;;;16.50;42.30;;;;;;5106805;27;43539;-78
2021/12/21 07:06:18;;;;;;;;;;;16.50;42.30;;;;;;5106796;27;42932;-78
2021/12/21 07:09:06;;;;;;;;;;;16.50;42.40;;;;;;5106705;27;43468;-77
2021/12/21 07:19:26;;;;;;;;;;;16.50;42.30;;;;;;5106686;27;42866;-73
2021/12/21 07:21:51;;;;;;;;;;;16.50;42.30;;;;;;5106586;27;43024;-72
2021/12/21 07:24:17;;;;;;;;;;;16.50;42.20;;;;;;5107215;27;43450;-74
2021/12/21 07:26:42;;;;;;;;;;;16.50;42.30;;;;;;5106749;27;42925;-72
2021/12/21 07:29:08;;;;;;;;;;;16.50;42.30;;;;;;5106170;27;43479;-78
2021/12/21 07:31:34;;;;;;;;;;;16.50;42.30;;;;;;5106652;27;42960;-72
2021/12/21 07:33:59;;;;;;;;;;;16.50;42.30;;;;;;5106607;27;43292;-72
2021/12/21 07:36:26;;;;;;;;;;;16.40;42.20;;;;;;5106779;27;42931;-78
2021/12/21 07:38:52;;;;;;;;;;;16.40;42.20;;;;;;5106144;27;42773;-72
2021/12/21 07:41:17;;;;;;;;;;;16.50;42.30;;;;;;5106200;27;42929;-72
2021/12/21 07:43:43;;;;;;;;;;;16.50;42.20;;;;;;5104594;27;44129;-72
2021/12/21 07:46:08;;;;;;;;;;;16.50;42.20;;;;;;5106540;27;42918;-72
2021/12/21 07:48:34;;;;;;;;;;;16.50;42.20;;;;;;5105121;27;43918;-72
2021/12/21 07:51:00;;;;;;;;;;;16.50;42.20;;;;;;5106450;27;43048;-75
2021/12/21 07:53:25;;;;;;;;;;;16.50;42.20;;;;;;5104592;27;43334;-72
2021/12/21 07:55:51;;;;;;;;;;;16.50;42.20;;;;;;5106240;27;42906;-72
2021/12/21 07:58:17;;;;;;;;;;;16.50;42.20;;;;;;5105807;27;42961;-72
2021/12/21 08:00:42;;;;;;;;;;;16.50;42.20;;;;;;5104509;27;42985;-72
2021/12/21 08:03:09;;;;;;;;;;;16.50;42.20;;;;;;5105698;27;42917;-73
2021/12/21 08:05:35;;;;;;;;;;;16.50;42.30;;;;;;5105639;27;42943;-72
2021/12/21 08:08:18;;;;;;;;;;;16.50;42.20;;;;;;5105014;27;63374;-72
2021/12/21 08:10:47;;;;;;;;;;;16.50;42.20;;;;;;5106590;27;42901;-72
2021/12/21 08:13:13;;;;;;;;;;;16.50;42.20;;;;;;5105973;27;43320;-72
2021/12/21 08:15:39;;;;;;;;;;;16.40;42.20;;;;;;5105822;27;43029;-72
2021/12/21 08:18:04;;;;;;;;;;;16.40;42.20;;;;;;5105319;27;43710;-72
2021/12/21 08:20:30;;;;;;;;;;;16.40;42.20;;;;;;5105716;27;42886;-72
2021/12/21 08:22:56;;;;;;;;;;;16.40;42.20;;;;;;5105793;27;43420;-72
2021/12/21 08:25:24;;;;;;;;;;;16.40;42.30;;;;;;5105653;27;42945;-72
2021/12/21 08:27:50;;;;;;;;;;;16.40;42.20;;;;;;5105329;27;42977;-73
2021/12/21 08:30:16;;;;;;;;;;;16.50;42.40;;;;;;5105256;27;42996;-73
2021/12/21 08:32:42;;;;;;;;;;;16.40;42.20;;;;;;5106333;27;42904;-72
2021/12/21 08:35:07;;;;;;;;;;;16.40;42.20;;;;;;5105976;27;42941;-74
2021/12/21 08:37:34;;;;;;;;;;;16.40;42.20;;;;;;5105577;27;42990;-73
2021/12/21 08:40:00;;;;;;;;;;;16.40;42.20;;;;;;5105456;27;42843;-73
2021/12/21 08:42:26;;;;;;;;;;;16.40;42.20;;;;;;5105495;27;43379;-73
2021/12/21 08:44:52;;;;;;;;;;;16.40;42.70;;;;;;5105717;27;42787;-73
2021/12/21 08:47:18;;;;;;;;;;;16.40;42.30;;;;;;5105544;27;43502;-73
2021/12/21 08:49:43;;;;;;;;;;;16.40;42.20;;;;;;5105933;27;42904;-77
2021/12/21 08:52:10;;;;;;;;;;;16.40;42.20;;;;;;5105340;27;42692;-73
2021/12/21 08:54:35;;;;;;;;;;;16.40;42.20;;;;;;5104909;27;42761;-73
2021/12/21 08:57:01;;;;;;;;;;;16.40;42.30;;;;;;5104358;27;42896;-73
2021/12/21 08:59:26;;;;;;;;;;;16.40;42.20;;;;;;5104805;27;42940;-73
2021/12/21 09:01:53;;;;;;;;;;;16.40;42.30;;;;;;5108566;27;43578;-73
2021/12/21 09:04:21;;;;;;;;;;;16.40;42.30;;;;;;5109469;27;42963;-73
2021/12/21 09:06:47;;;;;;;;;;;16.40;42.30;;;;;;5108627;27;43023;-73
2021/12/21 09:09:12;;;;;;;;;;;16.40;42.30;;;;;;5108469;27;42929;-72
2021/12/21 09:11:38;;;;;;;;;;;16.40;42.30;;;;;;5108164;27;43387;-74
2021/12/21 09:14:04;;;;;;;;;;;16.40;42.30;;;;;;5108884;27;42897;-73
2021/12/21 09:16:30;;;;;;;;;;;16.40;42.30;;;;;;5108690;27;43418;-73
2021/12/21 09:18:55;;;;;;;;;;;16.40;42.30;;;;;;5108160;27;43182;-73
2021/12/21 09:21:21;;;;;;;;;;;16.40;42.30;;;;;;5108597;27;43532;-73
2021/12/21 09:23:46;;;;;;;;;;;16.40;42.30;;;;;;5108914;27;42944;-73
2021/12/21 09:26:12;;;;;;;;;;;16.40;42.20;;;;;;5108774;27;42984;-73
2021/12/21 09:28:37;;;;;;;;;;;16.40;42.20;;;;;;5108020;27;42948;-73
2021/12/21 09:31:03;;;;;;;;;;;16.40;42.20;;;;;;5108414;27;43759;-73
2021/12/21 09:33:28;;;;;;;;;;;16.40;42.10;;;;;;5108763;27;42913;-79
2021/12/21 09:35:54;;;;;;;;;;;16.40;42.10;;;;;;5108562;27;43004;-74
2021/12/21 09:38:19;;;;;;;;;;;16.50;42.20;;;;;;5108537;27;42798;-77
2021/12/21 09:40:45;;;;;;;;;;;16.50;42.10;;;;;;5108694;27;43464;-73
2021/12/21 09:43:11;;;;;;;;;;;16.50;42.10;;;;;;5108166;27;42815;-73
2021/12/21 09:45:37;;;;;;;;;;;16.40;42.10;;;;;;5107797;27;43016;-73
2021/12/21 09:48:03;;;;;;;;;;;16.50;42.10;;;;;;5107758;27;42912;-73
2021/12/21 09:50:29;;;;;;;;;;;16.50;42.00;;;;;;5107468;27;44750;-73
2021/12/21 09:52:55;;;;;;;;;;;16.50;41.90;;;;;;5106187;27;42845;-73
2021/12/21 09:55:21;;;;;;;;;;;16.40;41.70;;;;;;5107535;27;42932;-73
2021/12/21 09:57:48;;;;;;;;;;;16.40;41.60;;;;;;5108206;27;43086;-79
2021/12/21 10:00:18;;;;;;;;;;;16.40;41.70;;;;;;5107832;27;43939;-72
2021/12/21 10:02:44;;;;;;;;;;;16.40;41.70;;;;;;5108296;27;42921;-73
2021/12/21 10:05:14;;;;;;;;;;;16.40;41.60;;;;;;5108189;27;42821;-73
2021/12/21 10:07:39;;;;;;;;;;;16.40;41.60;;;;;;5108013;27;42900;-73
2021/12/21 10:10:08;;;;;;;;;;;16.40;41.50;;;;;;5108094;27;43637;-74
2021/12/21 10:12:35;;;;;;;;;;;16.40;41.50;;;;;;5106852;27;42916;-73
2021/12/21 10:15:02;;;;;;;;;;;16.40;41.60;;;;;;5107808;27;42862;-73
2021/12/21 10:17:31;;;;;;;;;;;16.40;41.50;;;;;;5107897;27;42899;-73
2021/12/21 10:19:57;;;;;;;;;;;16.40;41.50;;;;;;5106209;27;44412;-73
2021/12/21 10:22:22;;;;;;;;;;;16.40;41.50;;;;;;5108359;27;42948;-73
2021/12/21 10:24:49;;;;;;;;;;;16.40;41.50;;;;;;5107684;27;43344;-73
2021/12/21 10:27:15;;;;;;;;;;;16.40;41.40;;;;;;5108293;27;42958;-79
2021/12/21 10:29:42;;;;;;;;;;;16.40;41.40;;;;;;5105752;27;43519;-73
2021/12/21 10:32:15;;;;;;;;;;;16.40;41.50;;;;;;5107994;27;42990;-73
2021/12/21 10:34:48;;;;;;;;;;;16.40;41.50;;;;;;5107923;27;43676;-73
2021/12/21 10:37:23;;;;;;;;;;;16.40;41.40;;;;;;5108037;27;42871;-77
2021/12/21 10:39:49;;;;;;;;;;;16.40;41.40;;;;;;5106896;27;43715;-73
2021/12/21 10:42:15;;;;;;;;;;;16.40;41.20;;;;;;5107963;27;42981;-73
2021/12/21 10:44:44;;;;;;;;;;;16.40;41.30;;;;;;5107813;27;42920;-73
2021/12/21 10:47:11;;;;;;;;;;;16.40;41.30;;;;;;5107727;27;42960;-74
2021/12/21 10:49:39;;;;;;;;;;;16.40;41.30;;;;;;5107341;27;43617;-73
2021/12/21 10:52:05;;;;;;;;;;;16.40;41.40;;;;;;5107327;27;42980;-78
2021/12/21 10:54:41;;;;;;;;;;;16.40;41.20;;;;;;5107407;27;43374;-78
2021/12/21 10:57:11;;;;;;;;;;;16.40;41.30;;;;;;5107313;27;42937;-74
2021/12/21 10:59:40;;;;;;;;;;;16.40;41.30;;;;;;5106878;27;42849;-73
2021/12/21 11:02:07;;;;;;;;;;;16.50;41.20;;;;;;5107077;27;42924;-73
2021/12/21 11:04:40;;;;;;;;;;;16.40;41.10;;;;;;5107038;27;43425;-73
2021/12/21 11:07:20;;;;;;;;;;;16.40;41.10;;;;;;5105485;27;42993;-77
2021/12/21 11:09:58;;;;;;;;;;;16.40;41.10;;;;;;5106442;27;44451;-72
2021/12/21 11:12:25;;;;;;;;;;;16.40;41.10;;;;;;5107066;27;42870;-75
2021/12/21 11:14:51;;;;;;;;;;;16.40;41.10;;;;;;5107015;27;43465;-73
2021/12/21 11:17:17;;;;;;;;;;;16.40;41.00;;;;;;5106944;27;42932;-73
2021/12/21 11:19:43;;;;;;;;;;;16.30;41.00;;;;;;5105908;27;42948;-73
2021/12/21 11:22:09;;;;;;;;;;;16.30;40.90;;;;;;5106711;27;42989;-75
2021/12/21 11:24:35;;;;;;;;;;;16.40;40.90;;;;;;5105561;27;43543;-73
2021/12/21 11:27:02;;;;;;;;;;;16.40;40.90;;;;;;5106853;27;42965;-73
2021/12/21 11:29:30;;;;;;;;;;;16.40;40.90;;;;;;5106833;27;43548;-73
2021/12/21 11:31:57;;;;;;;;;;;16.40;40.80;;;;;;5106566;27;43052;-74
2021/12/21 11:34:31;;;;;;;;;;;16.40;40.80;;;;;;5106457;27;43879;-73
2021/12/21 11:39:41;;;;;;;;;;;16.40;40.90;;;;;;5106389;27;43152;-73
2021/12/21 11:42:09;;;;;;;;;;;16.40;40.90;;;;;;5106133;27;42983;-78
2021/12/21 11:44:49;;;;;;;;;;;16.40;40.90;;;;;;5106190;27;43837;-73
2021/12/21 11:47:17;;;;;;;;;;;16.40;40.90;;;;;;5106388;27;42936;-72
2021/12/21 11:49:47;;;;;;;;;;;16.40;40.80;;;;;;5106469;27;42897;-75
2021/12/21 11:52:14;;;;;;;;;;;16.40;40.90;;;;;;5106189;27;42745;-78
2021/12/21 11:54:48;;;;;;;;;;;16.40;40.90;;;;;;5105981;27;43383;-73
2021/12/21 11:57:14;;;;;;;;;;;16.40;40.80;;;;;;5105865;27;42867;-73
2021/12/21 11:59:39;;;;;;;;;;;16.40;40.70;;;;;;5106505;27;43439;-73
2021/12/21 12:02:06;;;;;;;;;;;16.40;40.70;;;;;;5105872;27;42940;-78
2021/12/21 12:04:33;;;;;;;;;;;16.40;40.70;;;;;;5105987;27;42936;-72
2021/12/21 12:06:59;;;;;;;;;;;16.30;40.70;;;;;;5106095;27;42906;-73
2021/12/21 12:09:29;;;;;;;;;;;16.30;40.80;;;;;;5105134;27;43051;-78
2021/12/21 12:12:09;;;;;;;;;;;16.30;40.60;;;;;;5106057;27;42956;-72
2021/12/21 12:14:36;;;;;;;;;;;16.40;40.70;;;;;;5106259;27;42881;-73
2021/12/21 12:17:09;;;;;;;;;;;16.30;40.60;;;;;;5105826;27;42915;-73
2021/12/21 12:19:35;;;;;;;;;;;16.30;40.60;;;;;;5105836;27;42932;-73
2021/12/21 12:22:08;;;;;;;;;;;16.30;40.60;;;;;;5105984;27;42970;-79
2021/12/21 12:24:33;;;;;;;;;;;16.30;40.60;;;;;;5105777;27;43762;-73
2021/12/21 12:27:07;;;;;;;;;;;16.30;40.60;;;;;;5106283;27;42932;-72
2021/12/21 12:29:41;;;;;;;;;;;16.30;40.70;;;;;;5106016;27;43298;-72
2021/12/21 12:32:07;;;;;;;;;;;16.30;40.50;;;;;;5105763;27;42837;-72
2021/12/21 12:34:36;;;;;;;;;;;16.30;40.50;;;;;;5105291;27;42971;-72
2021/12/21 12:37:20;;;;;;;;;;;16.30;40.50;;;;;;5109448;27;43013;-73
2021/12/21 12:39:47;;;;;;;;;;;16.30;40.40;;;;;;5109849;27;43388;-73
2021/12/21 12:42:17;;;;;;;;;;;16.30;40.40;;;;;;5109423;27;42885;-72
2021/12/21 12:44:43;;;;;;;;;;;16.30;40.30;;;;;;5107636;27;45269;-73
2021/12/21 12:47:10;;;;;;;;;;;16.30;40.40;;;;;;5109096;27;42827;-73
2021/12/21 12:49:36;;;;;;;;;;;16.30;40.30;;;;;;5109360;27;42959;-73
2021/12/21 12:52:07;;;;;;;;;;;16.30;40.40;;;;;;5109306;27;42840;-73
2021/12/21 12:54:43;;;;;;;;;;;16.20;40.40;;;;;;5108788;27;43508;-72
2021/12/21 12:57:23;;;;;;;;;;;16.30;40.40;;;;;;5108925;27;42858;-72
2021/12/21 12:59:52;;;;;;;;;;;16.30;40.60;;;;;;5109290;27;43009;-72
2021/12/21 13:02:18;;;;;;;;;;;16.30;40.40;;;;;;5108982;27;42861;-72
2021/12/21 13:04:44;;;;;;;;;;;16.30;40.40;;;;;;5108729;27;43622;-72
2021/12/21 13:07:09;;;;;;;;;;;16.30;40.40;;;;;;5108034;27;43324;-72
2021/12/21 13:09:35;;;;;;;;;;;16.30;40.40;;;;;;5107747;27;42919;-72
2021/12/21 13:12:00;;;;;;;;;;;16.30;40.40;;;;;;5108761;27;42779;-73
2021/12/21 13:14:26;;;;;;;;;;;16.30;40.40;;;;;;5109033;27;42876;-72
2021/12/21 13:16:56;;;;;;;;;;;16.30;40.30;;;;;;5108834;27;42963;-73
2021/12/21 13:19:25;;;;;;;;;;;16.30;40.40;;;;;;5108964;27;42932;-73
2021/12/21 13:21:57;;;;;;;;;;;16.30;40.30;;;;;;5108697;27;42967;-72
2021/12/21 13:24:31;;;;;;;;;;;16.30;40.30;;;;;;5108511;27;43957;-73
2021/12/21 13:26:59;;;;;;;;;;;16.30;40.30;;;;;;5108336;27;42984;-73
2021/12/21 13:29:25;;;;;;;;;;;16.30;40.40;;;;;;5107552;27;43260;-72
2021/12/21 13:31:52;;;;;;;;;;;16.30;40.30;;;;;;5108299;27;42911;-72
2021/12/21 13:34:19;;;;;;;;;;;16.30;40.30;;;;;;5108744;27;43316;-73
2021/12/21 13:36:50;;;;;;;;;;;16.30;40.30;;;;;;5108525;27;42979;-74
2021/12/21 13:39:21;;;;;;;;;;;16.30;40.30;;;;;;5106494;27;43050;-73
2021/12/21 13:41:57;;;;;;;;;;;16.30;40.30;;;;;;5108294;27;42995;-73
2021/12/21 13:44:27;;;;;;;;;;;16.30;40.30;;;;;;5108145;27;43007;-73
2021/12/21 13:46:54;;;;;;;;;;;16.30;40.40;;;;;;5107093;27;42907;-72
2021/12/21 13:49:19;;;;;;;;;;;16.30;40.40;;;;;;5107755;27;43490;-73
2021/12/21 13:51:53;;;;;;;;;;;16.30;40.20;;;;;;5108311;27;42849;-73
2021/12/21 13:54:19;;;;;;;;;;;16.30;40.40;;;;;;5108172;27;42849;-73
2021/12/21 13:56:46;;;;;;;;;;;16.30;40.30;;;;;;5107171;27;42959;-72
2021/12/21 13:59:12;;;;;;;;;;;16.30;40.40;;;;;;5108097;27;43463;-73
2021/12/21 14:01:38;;;;;;;;;;;16.30;40.40;;;;;;5108165;27;42874;-72
2021/12/21 14:04:07;;;;;;;;;;;16.30;40.40;;;;;;5107817;27;43500;-72
2021/12/21 14:06:34;;;;;;;;;;;16.30;40.40;;;;;;5108045;27;42929;-72
2021/12/21 14:09:02;;;;;;;;;;;16.30;40.30;;;;;;5107480;27;43076;-73
2021/12/21 14:11:29;;;;;;;;;;;16.30;40.30;;;;;;5108366;27;43053;-73
2021/12/21 14:13:55;;;;;;;;;;;16.30;40.30;;;;;;5108202;27;42790;-73
2021/12/21 14:16:23;;;;;;;;;;;16.30;40.40;;;;;;5108184;27;42933;-73
2021/12/21 14:18:53;;;;;;;;;;;16.30;40.50;;;;;;5106917;27;42933;-72
2021/12/21 14:21:20;;;;;;;;;;;16.30;40.40;;;;;;5107507;27;43066;-73
2021/12/21 14:23:47;;;;;;;;;;;16.30;40.40;;;;;;5107475;27;43529;-73
2021/12/21 14:26:13;;;;;;;;;;;16.30;40.40;;;;;;5107784;27;42927;-73
2021/12/21 14:28:45;;;;;;;;;;;16.30;40.40;;;;;;5107109;27;43529;-73
2021/12/21 14:31:13;;;;;;;;;;;16.30;40.40;;;;;;5106988;27;42967;-72
2021/12/21 14:33:46;;;;;;;;;;;16.30;40.40;;;;;;5106873;27;43035;-73
2021/12/21 14:36:15;;;;;;;;;;;16.30;40.50;;;;;;5106986;27;42906;-73
2021/12/21 14:38:51;;;;;;;;;;;16.20;40.40;;;;;;5106885;27;43399;-73
2021/12/21 14:41:23;;;;;;;;;;;16.20;40.30;;;;;;5107034;27;42886;-72
2021/12/21 14:43:59;;;;;;;;;;;16.20;40.30;;;;;;5106575;27;43411;-77
2021/12/21 14:46:25;;;;;;;;;;;16.20;40.40;;;;;;5107201;27;42877;-73
2021/12/21 14:49:01;;;;;;;;;;;16.20;40.30;;;;;;5107139;27;42855;-72
2021/12/21 14:51:28;;;;;;;;;;;16.20;40.40;;;;;;5107586;27;42987;-72
2021/12/21 14:54:06;;;;;;;;;;;16.20;40.40;;;;;;5107036;27;43320;-72
2021/12/21 14:56:34;;;;;;;;;;;16.20;40.40;;;;;;5107367;27;42913;-74
2021/12/21 14:59:00;;;;;;;;;;;16.20;40.40;;;;;;5107108;27;43552;-73
2021/12/21 15:01:42;;;;;;;;;;;16.20;40.50;;;;;;5107347;27;42822;-73
2021/12/21 15:04:24;;;;;;;;;;;16.20;40.40;;;;;;5106853;27;42934;-73
2021/12/21 15:06:50;;;;;;;;;;;16.20;40.50;;;;;;5106233;27;43106;-72
2021/12/21 15:09:16;;;;;;;;;;;16.20;40.40;;;;;;5106885;27;44289;-73
2021/12/21 15:11:45;;;;;;;;;;;16.10;40.40;;;;;;5107373;27;42845;-72
2021/12/21 15:14:11;;;;;;;;;;;16.20;40.50;;;;;;5106347;27;43916;-73
2021/12/21 15:16:36;;;;;;;;;;;16.20;40.50;;;;;;5106958;27;42975;-73
2021/12/21 15:19:02;;;;;;;;;;;16.10;40.40;;;;;;5106353;27;43541;-73
2021/12/21 15:21:27;;;;;;;;;;;16.10;40.40;;;;;;5106647;27;42932;-72
2021/12/21 15:23:55;;;;;;;;;;;16.10;40.40;;;;;;5106479;27;43390;-73
2021/12/21 15:26:21;;;;;;;;;;;16.20;40.40;;;;;;5106460;27;42892;-72